YM Unicorn — BLHI — position and weather

sailwx.info

Track history (hours):
 
Tides and Currents Weather Stations Pressure Air Temp Water Temp Dewpoint Dewpoint Depression Visibility Wind Speed Wind Dir Waves Ship Positions

YM Unicorn

Last reported at 2018-Jul-16 23:30 UTC. Time now 2018-Jul-17 00:11 UTC.
Position N 33°43' W 120°36'.

Length 333 m; draft 11.9 m.

Type: Ship (hazmat cat A). MMSI: 416464000.

Date/timePositionNaut miles runAvg speedWind from/ knotsBaromVisibWave heightAir tempDewpointWater temp
2018-Jul-16 23:30N 33°43' W 120°36'611.6
2018-Jul-16 23:01N 33°45' W 120°42'611.4
2018-Jul-16 22:31N 33°47' W 120°49'611.3
2018-Jul-16 22:00N 33°49' W 120°56'611.3
2018-Jul-16 21:30N 33°50' W 121°02'714.0
2018-Jul-16 21:00N 33°52' W 121°10'714.8
2018-Jul-16 20:30N 33°52' W 121°19'815.0
2018-Jul-16 20:00N 33°52' W 121°28'815.1
2018-Jul-16 19:30N 33°51' W 121°37'815.3
2018-Jul-16 19:01N 33°50' W 121°46'815.3
2018-Jul-16 18:30N 33°50' W 121°55'815.0
2018-Jul-16 17:59N 33°50' W 122°05'715.7
2018-Jul-16 17:30N 33°52' W 122°14'815.5
2018-Jul-16 17:00N 33°53' W 122°23'816.2
2018-Jul-16 16:30N 33°55' W 122°33'816.3
2018-Jul-16 16:00N 33°57' W 122°42'816.1
2018-Jul-16 15:30N 33°58' W 122°52'815.9
2018-Jul-16 15:00N 33°60' W 123°01'815.9
2018-Jul-16 14:28N 34°02' W 123°11'715.8
2018-Jul-16 14:00N 34°03' W 123°20'815.7
2018-Jul-16 13:30N 34°04' W 123°29'816.0
2018-Jul-16 13:00N 34°06' W 123°39'815.4
2018-Jul-16 12:30N 34°08' W 123°48'915.7
2018-Jul-16 11:56N 34°09' W 123°58'815.9
2018-Jul-16 11:26N 34°11' W 124°08'715.8
2018-Jul-16 10:59N 34°12' W 124°16'815.6
2018-Jul-16 10:28N 34°14' W 124°26'715.8
2018-Jul-16 10:00N 34°15' W 124°34'1015.8
2018-Jul-16 09:22N 34°17' W 124°46'815.7
2018-Jul-16 08:53N 34°19' W 124°55'615.6
2018-Jul-16 08:30N 34°20' W 125°02'815.6
2018-Jul-16 08:00N 34°22' W 125°12'1813.3
2018-Jul-16 06:41N 34°30' W 125°30'820.5
2018-Jul-16 06:18N 34°34' W 125°38'820.3
2018-Jul-16 05:56N 34°38' W 125°46'1020.2
2018-Jul-16 05:26N 34°44' W 125°56'920.3
2018-Jul-16 05:00N 34°48' W 126°05'1020.4
2018-Jul-16 04:30N 34°53' W 126°16'1120.5
2018-Jul-16 04:00N 34°59' W 126°27'1020.4
2018-Jul-16 03:30N 35°04' W 126°37'1120.6
2018-Jul-16 02:58N 35°10' W 126°49'1420.6
2018-Jul-16 02:17N 35°17' W 127°04'620.6
2018-Jul-16 02:00N 35°20' W 127°10'1020.8
2018-Jul-16 01:30N 35°26' W 127°21'1120.7
2018-Jul-16 01:00N 35°31' W 127°32'1220.7
2018-Jul-16 00:25N 35°37' W 127°44'2220.6
2018-Jul-15 23:21N 35°48' W 128°08'6920.2
2018-Jul-15 19:57N 36°22' W 129°21'15619.9
2018-Jul-15 12:06N 37°38' W 132°12'619.9
2018-Jul-15 11:49N 37°40' W 132°19'819.8
2018-Jul-15 11:24N 37°44' W 132°28'1519.8
2018-Jul-15 10:38N 37°51' W 132°45'519.6
2018-Jul-15 10:23N 37°54' W 132°51'719.6
2018-Jul-15 10:00N 37°57' W 132°59'1019.8
2018-Jul-15 09:30N 38°01' W 133°10'  
2018-Jul-07 00:31N 35°04' E 140°33'021.6
2018-Jul-07 00:30N 35°04' E 140°33'  
Track history (hours):
 
Tides and Currents Weather Stations Pressure Air Temp Water Temp Dewpoint Dewpoint Depression Visibility Wind Speed Wind Dir Waves Ship Positions

YM Unicorn

Last reported at 2018-Jul-16 23:30 UTC. Time now 2018-Jul-17 00:11 UTC.
Position N 33°43' W 120°36'.

Length 333 m; draft 11.9 m.

Type: Ship (hazmat cat A). MMSI: 416464000.

Date/timePositionNaut miles runAvg speedWind from/ knotsBaromVisibWave heightAir tempDewpointWater temp
2018-Jul-16 23:30N 33°43' W 120°36'611.6
2018-Jul-16 23:01N 33°45' W 120°42'611.4
2018-Jul-16 22:31N 33°47' W 120°49'611.3
2018-Jul-16 22:00N 33°49' W 120°56'611.3
2018-Jul-16 21:30N 33°50' W 121°02'714.0
2018-Jul-16 21:00N 33°52' W 121°10'714.8
2018-Jul-16 20:30N 33°52' W 121°19'815.0
2018-Jul-16 20:00N 33°52' W 121°28'815.1
2018-Jul-16 19:30N 33°51' W 121°37'815.3
2018-Jul-16 19:01N 33°50' W 121°46'815.3
2018-Jul-16 18:30N 33°50' W 121°55'815.0
2018-Jul-16 17:59N 33°50' W 122°05'715.7
2018-Jul-16 17:30N 33°52' W 122°14'815.5
2018-Jul-16 17:00N 33°53' W 122°23'816.2
2018-Jul-16 16:30N 33°55' W 122°33'816.3
2018-Jul-16 16:00N 33°57' W 122°42'816.1
2018-Jul-16 15:30N 33°58' W 122°52'815.9
2018-Jul-16 15:00N 33°60' W 123°01'815.9
2018-Jul-16 14:28N 34°02' W 123°11'715.8
2018-Jul-16 14:00N 34°03' W 123°20'815.7
2018-Jul-16 13:30N 34°04' W 123°29'816.0
2018-Jul-16 13:00N 34°06' W 123°39'815.4
2018-Jul-16 12:30N 34°08' W 123°48'915.7
2018-Jul-16 11:56N 34°09' W 123°58'815.9
2018-Jul-16 11:26N 34°11' W 124°08'715.8
2018-Jul-16 10:59N 34°12' W 124°16'815.6
2018-Jul-16 10:28N 34°14' W 124°26'715.8
2018-Jul-16 10:00N 34°15' W 124°34'1015.8
2018-Jul-16 09:22N 34°17' W 124°46'815.7
2018-Jul-16 08:53N 34°19' W 124°55'615.6
2018-Jul-16 08:30N 34°20' W 125°02'815.6
2018-Jul-16 08:00N 34°22' W 125°12'1813.3
2018-Jul-16 06:41N 34°30' W 125°30'820.5
2018-Jul-16 06:18N 34°34' W 125°38'820.3
2018-Jul-16 05:56N 34°38' W 125°46'1020.2
2018-Jul-16 05:26N 34°44' W 125°56'920.3
2018-Jul-16 05:00N 34°48' W 126°05'1020.4
2018-Jul-16 04:30N 34°53' W 126°16'1120.5
2018-Jul-16 04:00N 34°59' W 126°27'1020.4
2018-Jul-16 03:30N 35°04' W 126°37'1120.6
2018-Jul-16 02:58N 35°10' W 126°49'1420.6
2018-Jul-16 02:17N 35°17' W 127°04'620.6
2018-Jul-16 02:00N 35°20' W 127°10'1020.8
2018-Jul-16 01:30N 35°26' W 127°21'1120.7
2018-Jul-16 01:00N 35°31' W 127°32'1220.7
2018-Jul-16 00:25N 35°37' W 127°44'2220.6
2018-Jul-15 23:21N 35°48' W 128°08'6920.2
2018-Jul-15 19:57N 36°22' W 129°21'15619.9
2018-Jul-15 12:06N 37°38' W 132°12'619.9
2018-Jul-15 11:49N 37°40' W 132°19'819.8
2018-Jul-15 11:24N 37°44' W 132°28'1519.8
2018-Jul-15 10:38N 37°51' W 132°45'519.6
2018-Jul-15 10:23N 37°54' W 132°51'719.6
2018-Jul-15 10:00N 37°57' W 132°59'1019.8
2018-Jul-15 09:30N 38°01' W 133°10'  
2018-Jul-07 00:31N 35°04' E 140°33'021.6
2018-Jul-07 00:30N 35°04' E 140°33'  

Dump ship's entire track history